createdAt,value
2018-06-02T00:00:47.303Z,20.75
2018-06-02T00:03:14.805Z,20.69
2018-06-02T00:05:42.257Z,20.78
2018-06-02T00:08:09.744Z,20.66
2018-06-02T00:10:37.193Z,20.63
2018-06-02T00:13:04.739Z,20.63
2018-06-02T00:15:32.191Z,20.60
2018-06-02T00:17:59.649Z,20.63
2018-06-02T00:20:27.128Z,20.50
2018-06-02T00:22:54.603Z,20.40
2018-06-02T00:25:22.078Z,20.36
2018-06-02T00:27:49.609Z,20.72
2018-06-02T00:30:17.069Z,20.75
2018-06-02T00:32:44.599Z,20.86
2018-06-02T00:35:12.043Z,20.80
2018-06-02T00:37:39.532Z,21.00
2018-06-02T00:40:06.992Z,20.73
2018-06-02T00:42:34.538Z,20.91
2018-06-02T00:45:02.019Z,20.78
2018-06-02T00:47:29.550Z,20.60
2018-06-02T00:49:57.048Z,20.30
2018-06-02T00:52:24.505Z,20.39
2018-06-02T00:55:03.715Z,20.37
2018-06-02T00:57:31.186Z,20.34
2018-06-02T00:59:58.747Z,20.27
2018-06-02T01:02:26.200Z,20.13
2018-06-02T01:04:53.656Z,20.37
2018-06-02T01:07:21.147Z,20.39
2018-06-02T01:09:48.580Z,20.34
2018-06-02T01:12:16.056Z,20.32
2018-06-02T01:14:43.690Z,20.06
2018-06-02T01:17:11.139Z,20.18
2018-06-02T01:19:38.612Z,20.01
2018-06-02T01:22:06.051Z,19.90
2018-06-02T01:24:33.494Z,19.53
2018-06-02T01:27:01.075Z,19.74
2018-06-02T01:29:28.541Z,19.67
2018-06-02T01:31:56.014Z,19.53
2018-06-02T01:34:23.464Z,19.42
2018-06-02T01:36:50.922Z,19.41
2018-06-02T01:39:18.387Z,19.54
2018-06-02T01:41:45.928Z,19.45
2018-06-02T01:44:13.379Z,19.49
2018-06-02T01:46:40.838Z,19.25
2018-06-02T01:49:08.293Z,19.22
2018-06-02T01:51:35.752Z,19.36
2018-06-02T01:54:03.217Z,19.42
2018-06-02T01:56:30.679Z,19.32
2018-06-02T01:58:58.120Z,19.24
2018-06-02T02:01:25.564Z,19.22
2018-06-02T02:03:53.011Z,19.29
2018-06-02T02:06:20.451Z,19.38
2018-06-02T02:08:47.895Z,19.15
2018-06-02T02:11:15.391Z,19.16
2018-06-02T02:13:42.859Z,19.16
2018-06-02T02:16:10.320Z,19.12
2018-06-02T02:18:37.801Z,19.10
2018-06-02T02:21:05.263Z,19.06
2018-06-02T02:23:32.744Z,19.01
2018-06-02T02:26:00.279Z,18.85
2018-06-02T02:28:27.723Z,18.94
2018-06-02T02:30:55.165Z,19.09
2018-06-02T02:33:22.627Z,19.02
2018-06-02T02:35:50.075Z,18.88
2018-06-02T02:38:17.539Z,18.87
2018-06-02T02:40:44.988Z,18.73
2018-06-02T02:43:12.461Z,18.75
2018-06-02T02:45:39.915Z,18.77
2018-06-02T02:48:07.431Z,18.54
2018-06-02T02:50:34.899Z,18.72
2018-06-02T02:53:02.350Z,18.70
2018-06-02T02:55:29.824Z,18.67
2018-06-02T02:57:57.321Z,18.64
2018-06-02T03:00:24.796Z,18.62
2018-06-02T03:02:52.266Z,18.60
2018-06-02T03:05:19.717Z,18.64
2018-06-02T03:07:47.150Z,18.44
2018-06-02T03:10:14.580Z,18.43
2018-06-02T03:12:42.066Z,18.54
2018-06-02T03:15:09.517Z,18.82
2018-06-02T03:17:36.967Z,18.99
2018-06-02T03:20:04.510Z,18.84
2018-06-02T03:22:31.928Z,18.95
2018-06-02T03:24:59.451Z,19.00
2018-06-02T03:27:26.901Z,19.10
2018-06-02T03:29:54.348Z,18.93
2018-06-02T03:32:21.809Z,19.04
2018-06-02T03:34:49.249Z,18.96
2018-06-02T03:37:16.810Z,19.05
2018-06-02T03:39:44.259Z,19.07
2018-06-02T03:42:11.738Z,18.85
2018-06-02T03:44:39.310Z,19.10
2018-06-02T03:47:06.779Z,19.07
2018-06-02T03:49:34.217Z,19.19
2018-06-02T03:52:01.732Z,19.02
2018-06-02T03:54:29.191Z,19.09
2018-06-02T03:56:56.638Z,19.37
2018-06-02T03:59:24.120Z,19.26
2018-06-02T04:01:51.601Z,19.31
2018-06-02T04:04:19.063Z,19.41
2018-06-02T04:06:46.498Z,19.37
2018-06-02T04:09:13.968Z,19.45
2018-06-02T04:11:41.428Z,19.41
2018-06-02T04:14:09.017Z,19.51
2018-06-02T04:16:36.472Z,19.41
2018-06-02T04:19:03.917Z,19.43
2018-06-02T04:21:31.367Z,19.44
2018-06-02T04:23:58.835Z,19.48
2018-06-02T04:26:26.370Z,19.64
2018-06-02T04:28:53.839Z,19.66
2018-06-02T04:31:21.315Z,19.80
2018-06-02T04:33:48.848Z,19.89
2018-06-02T04:36:16.409Z,19.87
2018-06-02T04:38:43.880Z,19.87
2018-06-02T04:41:11.329Z,20.01
2018-06-02T04:43:38.792Z,19.96
2018-06-02T04:46:06.450Z,20.25
2018-06-02T04:48:33.935Z,20.22
2018-06-02T04:51:01.377Z,19.79
2018-06-02T04:53:28.828Z,20.72
2018-06-02T04:55:56.307Z,21.02
2018-06-02T04:58:23.795Z,20.76
2018-06-02T05:00:51.254Z,20.96
2018-06-02T05:03:18.734Z,20.89
2018-06-02T05:05:46.208Z,20.75
2018-06-02T05:08:13.730Z,20.81
2018-06-02T05:10:41.179Z,20.68
2018-06-02T05:13:08.669Z,20.71
2018-06-02T05:15:36.127Z,21.07
2018-06-02T05:18:03.592Z,21.79
2018-06-02T05:20:31.048Z,22.06
2018-06-02T05:22:58.504Z,22.40
2018-06-02T05:25:26.062Z,22.31
2018-06-02T05:27:53.512Z,22.11
2018-06-02T05:30:20.965Z,22.15
2018-06-02T05:32:48.434Z,22.26
2018-06-02T05:35:15.887Z,22.37
2018-06-02T05:37:43.370Z,22.63
2018-06-02T05:40:10.836Z,22.78
2018-06-02T05:42:38.310Z,22.79
2018-06-02T05:45:05.818Z,22.76
2018-06-02T05:47:33.259Z,22.59
2018-06-02T05:50:00.729Z,22.47
2018-06-02T05:52:28.184Z,22.65
2018-06-02T05:54:55.664Z,22.34
2018-06-02T05:57:23.108Z,22.78
2018-06-02T05:59:50.582Z,22.52
2018-06-02T06:02:18.037Z,22.83
2018-06-02T06:04:45.510Z,22.62
2018-06-02T06:07:12.974Z,22.57
2018-06-02T06:09:40.422Z,22.93
2018-06-02T06:12:07.879Z,23.04
2018-06-02T06:14:35.357Z,22.82
2018-06-02T06:17:02.840Z,22.99
2018-06-02T06:19:30.327Z,22.83
2018-06-02T06:21:57.787Z,22.88
2018-06-02T06:24:25.285Z,22.63
2018-06-02T06:26:52.778Z,22.46
2018-06-02T06:29:20.233Z,22.58
2018-06-02T06:31:47.746Z,22.58
2018-06-02T06:34:15.259Z,22.24
2018-06-02T06:36:42.714Z,22.13
2018-06-02T06:39:10.194Z,22.09
2018-06-02T06:41:37.644Z,22.43
2018-06-02T06:44:05.103Z,22.92
2018-06-02T06:46:32.624Z,22.87
2018-06-02T06:49:00.070Z,22.76
2018-06-02T06:51:27.547Z,22.44
2018-06-02T06:53:55.035Z,22.70
2018-06-02T06:56:22.474Z,22.86
2018-06-02T06:58:49.952Z,22.67
2018-06-02T07:01:17.420Z,22.73
2018-06-02T07:03:44.949Z,23.28
2018-06-02T07:06:12.401Z,23.17
2018-06-02T07:08:39.848Z,23.53
2018-06-02T07:11:07.527Z,23.70
2018-06-02T07:13:35.109Z,23.56
2018-06-02T07:16:02.562Z,23.66
2018-06-02T07:18:29.985Z,23.95
2018-06-02T07:20:57.455Z,23.69
2018-06-02T07:23:24.902Z,24.00
2018-06-02T07:25:52.681Z,24.42
2018-06-02T07:28:20.140Z,24.67
2018-06-02T07:30:47.592Z,24.40
2018-06-02T07:33:15.037Z,24.99
2018-06-02T07:35:42.476Z,24.95
2018-06-02T07:38:09.927Z,25.49
2018-06-02T07:40:37.397Z,25.49
2018-06-02T07:43:04.945Z,25.68
2018-06-02T07:45:32.377Z,25.97
2018-06-02T07:47:59.817Z,26.25
2018-06-02T07:50:27.253Z,26.38
2018-06-02T07:52:54.949Z,26.51
2018-06-02T07:55:22.459Z,25.71
2018-06-02T07:57:49.918Z,25.20
2018-06-02T08:00:17.443Z,25.08
2018-06-02T08:02:44.895Z,24.98
2018-06-02T08:05:12.362Z,24.70
2018-06-02T08:07:39.801Z,24.62
2018-06-02T08:10:07.319Z,24.26
2018-06-02T08:12:34.776Z,24.52
2018-06-02T08:15:02.205Z,24.89
2018-06-02T08:17:29.917Z,24.75
2018-06-02T08:19:57.486Z,25.00
2018-06-02T08:22:24.946Z,24.98
2018-06-02T08:24:52.420Z,24.90
2018-06-02T08:27:19.874Z,25.66
2018-06-02T08:29:47.338Z,26.11
2018-06-02T08:32:14.815Z,26.49
2018-06-02T08:34:43.046Z,27.06
2018-06-02T08:37:10.505Z,27.21
2018-06-02T08:39:37.948Z,26.58
2018-06-02T08:42:05.522Z,26.93
2018-06-02T08:44:32.999Z,26.83
2018-06-02T08:47:00.648Z,26.82
2018-06-02T08:49:28.108Z,27.60
2018-06-02T08:51:55.564Z,27.93
2018-06-02T08:54:23.004Z,28.02
2018-06-02T08:56:50.511Z,27.62
2018-06-02T08:59:18.037Z,27.49
2018-06-02T09:01:45.554Z,27.43
2018-06-02T09:04:12.993Z,27.81
2018-06-02T09:06:40.467Z,27.35
2018-06-02T09:09:07.956Z,27.72
2018-06-02T09:11:35.451Z,27.67
2018-06-02T09:14:02.941Z,28.16
2018-06-02T09:16:30.389Z,27.74
2018-06-02T09:18:58.066Z,27.33
2018-06-02T09:21:25.531Z,28.10
2018-06-02T09:23:52.978Z,28.45
2018-06-02T09:26:20.432Z,27.92
2018-06-02T09:28:48.095Z,27.38
2018-06-02T09:31:15.737Z,27.10
2018-06-02T09:33:43.219Z,26.96
2018-06-02T09:36:10.712Z,27.73
2018-06-02T09:38:38.164Z,27.79
2018-06-02T09:41:05.958Z,28.23
2018-06-02T09:43:33.422Z,28.28
2018-06-02T09:46:00.928Z,28.91
2018-06-02T09:48:28.466Z,29.01
2018-06-02T09:50:55.938Z,28.80
2018-06-02T09:53:23.388Z,29.11
2018-06-02T09:55:50.836Z,29.88
2018-06-02T09:58:19.093Z,29.68
2018-06-02T10:00:46.546Z,29.52
2018-06-02T10:03:14.162Z,29.54
2018-06-02T10:05:41.629Z,29.52
2018-06-02T10:08:09.197Z,29.51
2018-06-02T10:10:36.724Z,29.71
2018-06-02T10:13:04.468Z,29.22
2018-06-02T10:15:31.960Z,28.67
2018-06-02T10:17:59.432Z,29.30
2018-06-02T10:20:26.935Z,29.32
2018-06-02T10:22:54.395Z,29.19
2018-06-02T10:25:32.598Z,30.22
2018-06-02T10:28:14.175Z,29.80
2018-06-02T10:30:41.753Z,29.52
2018-06-02T10:33:09.224Z,30.01
2018-06-02T10:35:36.743Z,30.47
2018-06-02T10:38:04.221Z,30.71
2018-06-02T10:40:31.657Z,30.26
2018-06-02T10:42:59.126Z,31.12
2018-06-02T10:45:26.658Z,30.34
2018-06-02T10:47:54.133Z,29.40
2018-06-02T10:50:21.584Z,29.84
2018-06-02T10:52:49.063Z,29.23
2018-06-02T10:55:16.500Z,29.98
2018-06-02T10:57:44.202Z,30.00
2018-06-02T11:00:11.634Z,30.41
2018-06-02T11:08:44.454Z,30.83
2018-06-02T11:11:11.913Z,30.90
2018-06-02T11:13:39.404Z,30.70
2018-06-02T11:16:06.867Z,30.59
2018-06-02T11:18:34.317Z,30.89
2018-06-02T11:21:01.789Z,30.29
2018-06-02T11:23:29.256Z,30.38
2018-06-02T11:25:56.738Z,29.78
2018-06-02T11:28:24.191Z,30.65
2018-06-02T11:30:51.635Z,30.88
2018-06-02T11:33:19.096Z,30.29
2018-06-02T11:35:46.586Z,30.16
2018-06-02T11:38:14.071Z,30.31
2018-06-02T11:40:41.574Z,30.49
2018-06-02T11:43:09.060Z,29.86
2018-06-02T11:45:36.560Z,30.02
2018-06-02T11:48:04.059Z,30.85
2018-06-02T11:50:31.557Z,31.05
2018-06-02T11:52:59.025Z,30.29
2018-06-02T11:55:26.509Z,32.53
2018-06-02T11:57:53.977Z,32.51
2018-06-02T12:00:21.431Z,32.39
2018-06-02T12:02:49.008Z,33.27
2018-06-02T12:05:16.462Z,32.16
2018-06-02T12:07:43.929Z,32.67
2018-06-02T12:10:11.380Z,33.67
2018-06-02T12:12:38.870Z,33.97
2018-06-02T12:15:06.382Z,38.00
2018-06-02T12:17:33.873Z,39.62
2018-06-02T12:20:01.448Z,37.15
2018-06-02T12:22:28.921Z,38.62
2018-06-02T12:24:56.443Z,38.22
2018-06-02T12:27:23.917Z,40.49
2018-06-02T12:29:51.437Z,39.92
2018-06-02T12:32:18.929Z,39.14
2018-06-02T12:34:46.422Z,38.91
2018-06-02T12:37:13.883Z,37.36
2018-06-02T12:39:41.360Z,38.73
2018-06-02T12:42:08.834Z,38.67
2018-06-02T12:44:36.299Z,38.12
2018-06-02T12:47:06.234Z,37.61
2018-06-02T12:49:34.030Z,34.70
2018-06-02T12:52:01.559Z,37.81
2018-06-02T12:54:29.057Z,38.18
2018-06-02T12:56:56.526Z,37.13
2018-06-02T12:59:24.019Z,38.59
2018-06-02T13:01:51.561Z,40.34
2018-06-02T13:04:19.051Z,42.44
2018-06-02T13:06:46.562Z,44.74
2018-06-02T13:09:14.044Z,44.64
2018-06-02T13:11:42.344Z,44.19
2018-06-02T13:14:09.833Z,41.01
2018-06-02T13:16:37.306Z,37.60
2018-06-02T13:19:04.774Z,35.51
2018-06-02T13:21:32.254Z,34.56
2018-06-02T13:23:59.754Z,34.30
2018-06-02T13:26:27.242Z,35.28
2018-06-02T13:28:54.697Z,39.80
2018-06-02T13:31:22.173Z,38.79
2018-06-02T13:33:49.635Z,43.19
2018-06-02T13:36:17.135Z,42.94
2018-06-02T13:38:44.655Z,40.72
2018-06-02T13:41:12.110Z,42.46
2018-06-02T13:43:39.662Z,43.26
2018-06-02T13:46:07.110Z,41.43
2018-06-02T13:48:34.567Z,43.84
2018-06-02T13:51:02.027Z,45.10
2018-06-02T13:53:29.504Z,43.65
2018-06-02T13:55:57.048Z,41.73
2018-06-02T13:58:24.503Z,42.04
2018-06-02T14:00:52.109Z,38.24
2018-06-02T14:03:19.573Z,39.86
2018-06-02T14:05:47.022Z,41.46
2018-06-02T14:08:14.484Z,43.17
2018-06-02T14:10:41.948Z,43.57
2018-06-02T14:13:09.426Z,44.12
2018-06-02T14:15:36.930Z,44.10
2018-06-02T14:18:04.430Z,44.76
2018-06-02T14:20:31.945Z,43.52
2018-06-02T14:22:59.389Z,43.89
2018-06-02T14:25:26.919Z,45.09
2018-06-02T14:27:54.422Z,43.53
2018-06-02T14:30:21.981Z,42.36
2018-06-02T14:32:49.505Z,44.88
2018-06-02T14:35:17.110Z,41.29
2018-06-02T14:37:44.648Z,37.64
2018-06-02T14:40:12.087Z,39.50
2018-06-02T14:42:39.527Z,42.54
2018-06-02T14:45:07.005Z,39.98
2018-06-02T14:47:34.455Z,39.42
2018-06-02T14:50:01.914Z,38.16
2018-06-02T14:52:29.350Z,38.64
2018-06-02T14:54:56.844Z,42.07
2018-06-02T14:57:24.290Z,43.39
2018-06-02T14:59:51.759Z,45.59
2018-06-02T15:02:19.237Z,44.59
2018-06-02T15:04:46.713Z,42.25
2018-06-02T15:07:14.181Z,43.31
2018-06-02T15:09:41.672Z,45.73
2018-06-02T15:12:09.139Z,44.67
2018-06-02T15:14:36.822Z,43.40
2018-06-02T15:17:04.253Z,40.25
2018-06-02T15:19:31.737Z,38.57
2018-06-02T15:21:59.186Z,37.41
2018-06-02T15:24:26.649Z,35.02
2018-06-02T15:26:54.120Z,35.82
2018-06-02T15:29:21.555Z,37.97
2018-06-02T15:31:49.006Z,38.48
2018-06-02T15:34:16.575Z,39.97
2018-06-02T15:36:48.745Z,39.04
2018-06-02T15:39:16.218Z,38.04
2018-06-02T15:41:43.771Z,36.98
2018-06-02T15:44:11.303Z,39.14
2018-06-02T15:46:38.767Z,38.18
2018-06-02T15:49:06.209Z,35.89
2018-06-02T15:51:33.704Z,36.87
2018-06-02T15:54:01.264Z,36.14
2018-06-02T15:56:28.798Z,34.80
2018-06-02T15:58:57.334Z,32.79
2018-06-02T16:01:24.801Z,32.41
2018-06-02T16:03:52.298Z,32.44
2018-06-02T16:06:19.761Z,32.79
2018-06-02T16:08:47.228Z,36.11
2018-06-02T16:11:14.723Z,37.51
2018-06-02T16:13:42.227Z,40.09
2018-06-02T16:16:09.769Z,41.12
2018-06-02T16:18:37.245Z,40.09
2018-06-02T16:21:04.695Z,37.36
2018-06-02T16:23:32.147Z,36.66
2018-06-02T16:25:59.615Z,35.71
2018-06-02T16:28:27.077Z,35.31
2018-06-02T16:30:54.525Z,37.09
2018-06-02T16:33:22.051Z,40.39
2018-06-02T16:35:49.514Z,41.38
2018-06-02T16:38:16.977Z,39.54
2018-06-02T16:40:44.410Z,39.47
2018-06-02T16:43:12.134Z,37.83
2018-06-02T16:45:39.622Z,38.31
2018-06-02T16:48:07.064Z,37.18
2018-06-02T16:50:34.534Z,37.55
2018-06-02T16:53:01.992Z,36.60
2018-06-02T16:55:29.473Z,36.41
2018-06-02T16:57:56.999Z,37.66
2018-06-02T17:00:24.512Z,37.59
2018-06-02T17:02:51.981Z,38.43
2018-06-02T17:05:19.445Z,38.65
2018-06-02T17:07:46.908Z,36.44
2018-06-02T17:10:14.353Z,38.04
2018-06-02T17:12:41.817Z,37.07
2018-06-02T17:15:09.272Z,36.30
2018-06-02T17:17:36.733Z,36.61
2018-06-02T17:20:04.349Z,34.18
2018-06-02T17:22:31.754Z,33.82
2018-06-02T17:24:59.197Z,33.75
2018-06-02T17:27:26.656Z,34.94
2018-06-02T17:29:54.117Z,35.14
2018-06-02T17:32:21.834Z,33.47
2018-06-02T17:34:49.290Z,33.94
2018-06-02T17:37:16.773Z,35.19
2018-06-02T17:39:45.436Z,37.01
2018-06-02T17:42:12.991Z,36.82
2018-06-02T17:44:40.604Z,37.73
2018-06-02T17:47:08.077Z,38.31
2018-06-02T17:49:35.524Z,38.84
2018-06-02T17:52:02.968Z,39.33
2018-06-02T17:54:30.450Z,38.77
2018-06-02T17:56:57.917Z,38.05
2018-06-02T17:59:25.394Z,35.83
2018-06-02T18:01:52.907Z,34.09
2018-06-02T18:04:20.345Z,33.12
2018-06-02T18:06:47.791Z,32.18
2018-06-02T18:09:15.250Z,30.07
2018-06-02T18:11:42.719Z,29.83
2018-06-02T18:14:10.197Z,29.52
2018-06-02T18:16:37.751Z,28.63
2018-06-02T18:19:05.187Z,28.53
2018-06-02T18:21:32.629Z,28.43
2018-06-02T18:24:00.095Z,28.38
2018-06-02T18:26:27.553Z,28.41
2018-06-02T18:28:55.020Z,28.11
2018-06-02T18:31:22.471Z,27.85
2018-06-02T18:33:49.927Z,27.76
2018-06-02T18:36:17.373Z,27.63
2018-06-02T18:38:44.836Z,27.40
2018-06-02T18:41:12.324Z,27.15
2018-06-02T18:43:39.771Z,27.06
2018-06-02T18:46:07.294Z,26.76
2018-06-02T18:48:34.767Z,26.09
2018-06-02T18:51:02.352Z,26.12
2018-06-02T18:53:29.816Z,26.15
2018-06-02T18:55:57.363Z,26.11
2018-06-02T18:58:24.807Z,25.91
2018-06-02T19:00:52.308Z,26.00
2018-06-02T19:03:19.758Z,26.20
2018-06-02T19:05:47.237Z,26.11
2018-06-02T19:08:14.676Z,25.82
2018-06-02T19:10:42.177Z,25.54
2018-06-02T19:13:09.622Z,25.66
2018-06-02T19:15:37.135Z,25.96
2018-06-02T19:18:04.778Z,26.04
2018-06-02T19:20:32.249Z,25.70
2018-06-02T19:22:59.815Z,25.70
2018-06-02T19:25:27.283Z,25.86
2018-06-02T19:27:54.746Z,25.72
2018-06-02T19:30:22.194Z,25.51
2018-06-02T19:32:49.669Z,25.49
2018-06-02T19:35:17.206Z,25.30
2018-06-02T19:37:44.663Z,25.38
2018-06-02T19:40:12.116Z,25.08
2018-06-02T19:42:39.572Z,25.22
2018-06-02T19:45:07.151Z,25.29
2018-06-02T19:47:34.666Z,25.19
2018-06-02T19:50:02.132Z,25.01
2018-06-02T19:52:29.589Z,25.00
2018-06-02T19:54:57.029Z,24.99
2018-06-02T19:57:24.478Z,24.90
2018-06-02T19:59:51.934Z,24.71
2018-06-02T20:02:19.470Z,24.20
2018-06-02T20:04:50.150Z,24.04
2018-06-02T20:07:17.681Z,23.86
2018-06-02T20:09:45.160Z,23.68
2018-06-02T20:12:12.731Z,23.63
2018-06-02T20:14:40.237Z,23.55
2018-06-02T20:17:09.306Z,23.56
2018-06-02T20:19:36.919Z,23.54
2018-06-02T20:22:04.376Z,23.56
2018-06-02T20:24:31.886Z,23.48
2018-06-02T20:26:59.438Z,23.60
2018-06-02T20:29:26.891Z,23.67
2018-06-02T20:31:54.319Z,23.58
2018-06-02T20:34:21.807Z,23.68
2018-06-02T20:36:49.259Z,23.58
2018-06-02T20:39:16.746Z,23.77
2018-06-02T20:41:44.201Z,23.78
2018-06-02T20:44:11.659Z,23.81
2018-06-02T20:46:39.177Z,23.85
2018-06-02T20:49:06.646Z,23.85
2018-06-02T20:51:34.110Z,23.99
2018-06-02T20:54:01.758Z,23.83
2018-06-02T20:56:29.458Z,23.76
2018-06-02T20:58:57.065Z,23.79
2018-06-02T21:01:24.760Z,23.79
2018-06-02T21:03:53.742Z,23.75
2018-06-02T21:06:21.269Z,23.69
2018-06-02T21:08:48.757Z,23.40
2018-06-02T21:11:16.324Z,23.57
2018-06-02T21:13:43.987Z,23.50
2018-06-02T21:16:27.559Z,23.41
2018-06-02T21:19:01.292Z,23.17
2018-06-02T21:21:34.852Z,23.04
2018-06-02T21:24:06.892Z,22.98
2018-06-02T21:26:34.673Z,22.89
2018-06-02T21:29:06.455Z,23.00
2018-06-02T21:31:38.853Z,22.99
2018-06-02T21:34:19.288Z,23.05
2018-06-02T21:36:50.748Z,23.04
2018-06-02T21:39:20.470Z,22.67
2018-06-02T21:41:51.860Z,22.28
2018-06-02T21:46:58.376Z,22.31
2018-06-02T21:49:31.853Z,22.10
2018-06-02T21:52:01.131Z,22.29
2018-06-02T21:54:29.894Z,22.13
2018-06-02T21:56:59.831Z,22.02
2018-06-02T21:59:27.360Z,21.77
2018-06-02T22:01:54.919Z,21.89
2018-06-02T22:04:22.315Z,21.73
2018-06-02T22:06:49.807Z,21.58
2018-06-02T22:09:17.277Z,21.66
2018-06-02T22:11:44.759Z,21.49
2018-06-02T22:14:12.212Z,21.48
2018-06-02T22:16:39.727Z,21.31
2018-06-02T22:19:07.352Z,21.08
2018-06-02T22:21:34.819Z,21.16
2018-06-02T22:24:02.493Z,21.06
2018-06-02T22:26:29.969Z,21.01
2018-06-02T22:28:57.480Z,20.98
2018-06-02T22:31:24.982Z,20.95
2018-06-02T22:33:52.477Z,20.84
2018-06-02T22:36:20.000Z,20.81
2018-06-02T22:38:47.415Z,20.72
2018-06-02T22:41:14.853Z,20.80
2018-06-02T22:43:42.344Z,20.73
2018-06-02T22:46:09.801Z,20.68
2018-06-02T22:48:37.266Z,20.63
2018-06-02T22:51:04.856Z,20.69
2018-06-02T22:53:32.303Z,20.65
2018-06-02T22:55:59.798Z,20.73
2018-06-02T22:58:27.273Z,20.73
2018-06-02T23:00:54.861Z,20.85
2018-06-02T23:03:22.438Z,21.18
2018-06-02T23:05:49.900Z,21.39
2018-06-02T23:08:17.407Z,21.37
2018-06-02T23:10:44.870Z,21.10
2018-06-02T23:13:12.320Z,20.90
2018-06-02T23:15:39.763Z,20.76
2018-06-02T23:18:07.249Z,20.61
2018-06-02T23:20:36.271Z,20.52
2018-06-02T23:23:06.047Z,20.51
2018-06-02T23:25:34.154Z,20.29
2018-06-02T23:28:11.313Z,20.14
2018-06-02T23:30:38.917Z,20.10
2018-06-02T23:33:06.413Z,20.16
2018-06-02T23:35:33.870Z,20.23
2018-06-02T23:38:02.115Z,20.09
2018-06-02T23:40:29.646Z,20.25
2018-06-02T23:42:57.181Z,20.19
2018-06-02T23:45:24.637Z,19.93
2018-06-02T23:47:52.077Z,19.70
2018-06-02T23:50:19.590Z,19.81
2018-06-02T23:52:47.135Z,19.90
2018-06-02T23:55:14.600Z,19.86
2018-06-02T23:57:42.074Z,19.74
